createdAt,value
2018-08-19T00:00:48.753Z,32.00
2018-08-19T00:03:17.326Z,32.10
2018-08-19T00:05:45.876Z,32.20
2018-08-19T00:08:14.296Z,32.30
2018-08-19T00:11:00.583Z,32.20
2018-08-19T00:13:29.223Z,32.40
2018-08-19T00:15:57.691Z,32.20
2018-08-19T00:18:26.344Z,32.40
2018-08-19T00:20:54.760Z,32.50
2018-08-19T00:23:23.161Z,32.50
2018-08-19T00:25:51.527Z,32.60
2018-08-19T00:28:20.853Z,32.70
2018-08-19T00:30:49.216Z,32.70
2018-08-19T00:33:17.604Z,32.80
2018-08-19T00:35:45.892Z,32.80
2018-08-19T00:38:15.651Z,32.80
2018-08-19T00:40:44.346Z,32.80
2018-08-19T00:43:12.699Z,32.80
2018-08-19T00:45:41.098Z,32.90
2018-08-19T00:48:11.535Z,33.10
2018-08-19T00:50:40.377Z,33.10
2018-08-19T00:53:10.019Z,33.10
2018-08-19T00:55:43.844Z,33.30
2018-08-19T00:58:15.961Z,33.20
2018-08-19T01:00:44.278Z,33.30
2018-08-19T01:03:12.875Z,33.40
2018-08-19T01:05:41.372Z,33.40
2018-08-19T01:08:10.963Z,33.50
2018-08-19T01:10:39.868Z,33.60
2018-08-19T01:13:08.914Z,34.00
2018-08-19T01:15:37.348Z,33.80
2018-08-19T01:18:05.701Z,33.70
2018-08-19T01:20:34.091Z,33.80
2018-08-19T01:23:02.505Z,33.90
2018-08-19T01:25:30.987Z,33.80
2018-08-19T01:27:59.367Z,33.90
2018-08-19T01:30:27.799Z,33.90
2018-08-19T01:32:56.279Z,34.20
2018-08-19T01:35:30.163Z,34.40
2018-08-19T01:37:58.524Z,34.70
2018-08-19T01:40:26.922Z,34.70
2018-08-19T01:42:55.223Z,34.80
2018-08-19T01:45:23.542Z,34.90
2018-08-19T01:47:51.852Z,34.90
2018-08-19T01:50:20.191Z,34.80
2018-08-19T01:52:50.044Z,34.80
2018-08-19T01:55:19.000Z,34.90
2018-08-19T01:57:50.806Z,35.00
2018-08-19T02:00:19.517Z,35.00
2018-08-19T02:02:57.444Z,35.10
2018-08-19T02:05:26.136Z,35.20
2018-08-19T02:07:57.177Z,35.20
2018-08-19T02:10:26.145Z,35.30
2018-08-19T02:12:55.722Z,35.40
2018-08-19T02:15:25.280Z,35.20
2018-08-19T02:17:56.503Z,35.10
2018-08-19T02:20:26.861Z,35.20
2018-08-19T02:22:58.411Z,35.20
2018-08-19T02:25:28.015Z,35.30
2018-08-19T02:27:56.391Z,35.30
2018-08-19T02:30:24.765Z,35.40
2018-08-19T02:32:54.597Z,35.40
2018-08-19T02:35:23.007Z,35.00
2018-08-19T02:37:51.301Z,35.40
2018-08-19T02:40:24.913Z,35.30
2018-08-19T02:42:53.260Z,35.50
2018-08-19T02:45:21.643Z,35.70
2018-08-19T02:47:49.999Z,35.70
2018-08-19T02:50:18.354Z,36.00
2018-08-19T02:52:46.721Z,36.00
2018-08-19T02:55:15.162Z,36.00
2018-08-19T02:57:43.449Z,36.10
2018-08-19T03:00:12.198Z,36.20
2018-08-19T03:02:41.719Z,36.20
2018-08-19T03:05:11.434Z,36.20
2018-08-19T03:07:39.957Z,36.20
2018-08-19T03:10:12.267Z,36.30
2018-08-19T03:12:41.087Z,36.20
2018-08-19T03:15:10.704Z,36.80
2018-08-19T03:17:39.635Z,36.30
2018-08-19T03:20:10.502Z,36.10
2018-08-19T03:22:38.843Z,36.20
2018-08-19T03:25:07.983Z,36.20
2018-08-19T03:27:36.383Z,36.30
2018-08-19T03:30:09.185Z,36.20
2018-08-19T03:32:40.566Z,36.50
2018-08-19T03:35:13.151Z,36.60
2018-08-19T03:37:41.494Z,36.70
2018-08-19T03:40:09.786Z,36.80
2018-08-19T03:42:38.229Z,36.70
2018-08-19T03:45:12.074Z,36.80
2018-08-19T03:47:40.379Z,36.80
2018-08-19T03:50:14.209Z,36.80
2018-08-19T03:52:42.920Z,36.90
2018-08-19T03:55:20.840Z,36.90
2018-08-19T03:57:49.892Z,37.00
2018-08-19T04:00:19.108Z,37.10
2018-08-19T04:02:47.576Z,37.20
2018-08-19T04:05:15.860Z,37.20
2018-08-19T04:07:44.570Z,37.20
2018-08-19T04:10:13.274Z,37.30
2018-08-19T04:12:41.696Z,37.20
2018-08-19T04:15:10.776Z,37.10
2018-08-19T04:17:39.351Z,37.20
2018-08-19T04:20:07.720Z,37.10
2018-08-19T04:22:36.159Z,37.20
2018-08-19T04:25:04.567Z,37.30
2018-08-19T04:27:32.931Z,37.20
2018-08-19T04:30:01.376Z,37.30
2018-08-19T04:32:30.946Z,37.30
2018-08-19T04:34:59.946Z,37.20
2018-08-19T04:37:28.788Z,37.20
2018-08-19T04:39:57.856Z,37.40
2018-08-19T04:42:26.260Z,37.70
2018-08-19T04:44:54.788Z,37.60
2018-08-19T04:47:31.510Z,37.70
2018-08-19T04:49:59.925Z,37.70
2018-08-19T04:52:28.286Z,37.70
2018-08-19T04:54:57.452Z,37.80
2018-08-19T04:57:25.979Z,37.80
2018-08-19T04:59:54.392Z,37.80
2018-08-19T05:02:23.351Z,37.90
2018-08-19T05:04:51.506Z,38.00
2018-08-19T05:07:19.850Z,38.20
2018-08-19T05:09:48.182Z,38.10
2018-08-19T05:12:16.558Z,38.20
2018-08-19T05:14:44.849Z,38.20
2018-08-19T05:17:13.960Z,38.30
2018-08-19T05:19:42.344Z,38.20
2018-08-19T05:22:12.916Z,38.30
2018-08-19T05:24:41.251Z,38.50
2018-08-19T05:27:10.020Z,38.50
2018-08-19T05:29:38.540Z,38.50
2018-08-19T05:32:11.051Z,38.60
2018-08-19T05:34:41.148Z,39.20
2018-08-19T05:37:09.430Z,38.70
2018-08-19T05:39:39.694Z,39.30
2018-08-19T05:42:11.416Z,38.60
2018-08-19T05:44:40.562Z,38.60
2018-08-19T05:47:13.460Z,38.30
2018-08-19T05:49:43.082Z,38.20
2018-08-19T05:52:18.987Z,38.20
2018-08-19T05:54:54.998Z,38.20
2018-08-19T05:57:23.321Z,38.00
2018-08-19T05:59:52.783Z,37.90
2018-08-19T06:02:32.477Z,38.00
2018-08-19T06:05:02.192Z,37.70
2018-08-19T06:07:30.863Z,37.70
2018-08-19T06:09:59.266Z,37.50
2018-08-19T06:12:27.696Z,37.60
2018-08-19T06:14:58.639Z,37.50
2018-08-19T06:17:27.031Z,37.30
2018-08-19T06:19:55.696Z,37.20
2018-08-19T06:22:42.571Z,37.00
2018-08-19T06:25:11.981Z,37.00
2018-08-19T06:27:48.607Z,36.80
2018-08-19T06:30:17.884Z,36.60
2018-08-19T06:32:46.458Z,36.50
2018-08-19T06:35:15.175Z,36.60
2018-08-19T06:37:43.455Z,36.40
2018-08-19T06:40:15.024Z,36.40
2018-08-19T06:42:43.500Z,36.20
2018-08-19T06:45:12.522Z,36.20
2018-08-19T06:47:40.897Z,36.10
2018-08-19T06:50:18.341Z,36.40
2018-08-19T06:52:46.818Z,36.20
2018-08-19T06:55:15.720Z,36.00
2018-08-19T06:57:44.252Z,36.20
2018-08-19T07:00:31.668Z,36.10
2018-08-19T07:03:02.603Z,35.80
2018-08-19T07:05:31.602Z,35.80
2018-08-19T07:08:00.612Z,35.80
2018-08-19T07:10:35.486Z,35.70
2018-08-19T07:13:14.636Z,35.60
2018-08-19T07:15:44.062Z,35.50
2018-08-19T07:18:14.175Z,35.40
2018-08-19T07:20:43.280Z,35.30
2018-08-19T07:23:11.962Z,35.10
2018-08-19T07:25:42.150Z,34.70
2018-08-19T07:28:11.409Z,34.80
2018-08-19T07:30:40.236Z,34.70
2018-08-19T07:33:08.731Z,34.80
2018-08-19T07:35:37.172Z,34.70
2018-08-19T07:38:05.566Z,34.40
2018-08-19T07:40:34.087Z,34.30
2018-08-19T07:43:02.510Z,34.10
2018-08-19T07:45:31.070Z,33.90
2018-08-19T07:47:59.540Z,34.00
2018-08-19T07:50:27.914Z,33.70
2018-08-19T07:52:56.403Z,33.50
2018-08-19T07:55:24.891Z,33.30
2018-08-19T07:57:53.305Z,33.00
2018-08-19T08:00:27.188Z,32.90
2018-08-19T08:02:55.509Z,33.10
2018-08-19T08:05:24.634Z,33.10
2018-08-19T08:07:53.046Z,32.70
2018-08-19T08:10:21.362Z,32.40
2018-08-19T08:12:54.883Z,32.30
2018-08-19T08:15:23.225Z,32.10
2018-08-19T08:17:51.549Z,31.60
2018-08-19T08:20:19.887Z,31.30
2018-08-19T08:22:48.222Z,31.40
2018-08-19T08:25:16.578Z,30.80
2018-08-19T08:27:44.912Z,31.60
2018-08-19T08:30:13.396Z,31.60
2018-08-19T08:32:45.495Z,31.20
2018-08-19T08:35:13.942Z,30.30
2018-08-19T08:37:42.845Z,30.50
2018-08-19T08:40:11.784Z,30.00
2018-08-19T08:42:42.162Z,29.70
2018-08-19T08:45:11.969Z,29.30
2018-08-19T08:47:40.445Z,29.40
2018-08-19T08:50:10.031Z,29.10
2018-08-19T08:52:38.367Z,28.40
2018-08-19T08:55:09.195Z,27.50
2018-08-19T08:57:38.488Z,26.60
2018-08-19T09:00:09.371Z,25.30
2018-08-19T09:02:37.722Z,24.20
2018-08-19T09:05:08.236Z,23.50
2018-08-19T09:07:36.627Z,22.30
2018-08-19T09:10:05.336Z,20.90
2018-08-19T09:12:50.347Z,19.70
2018-08-19T09:15:18.821Z,18.90
2018-08-19T09:17:47.163Z,18.10
2018-08-19T09:20:15.468Z,17.30
2018-08-19T09:22:44.643Z,16.30
2018-08-19T09:25:13.057Z,15.50
2018-08-19T09:27:42.021Z,15.00
2018-08-19T09:30:13.695Z,14.50
2018-08-19T09:32:55.049Z,13.60
2018-08-19T09:35:23.344Z,12.50
2018-08-19T09:37:57.484Z,12.70
2018-08-19T09:40:27.553Z,12.50
2018-08-19T09:42:56.394Z,12.30
2018-08-19T09:45:26.147Z,12.30
2018-08-19T09:47:54.898Z,12.70
2018-08-19T09:50:23.220Z,11.80
2018-08-19T09:52:51.594Z,11.40
2018-08-19T09:55:27.273Z,11.40
2018-08-19T09:57:56.960Z,11.40
2018-08-19T10:00:26.415Z,11.20
2018-08-19T10:02:54.799Z,11.20
2018-08-19T10:05:24.768Z,10.30
2018-08-19T10:07:55.084Z,10.50
2018-08-19T10:10:24.226Z,10.70
2018-08-19T10:12:52.738Z,10.30
2018-08-19T10:15:21.557Z,10.30
2018-08-19T10:17:50.023Z,10.10
2018-08-19T10:20:18.475Z,10.00
2018-08-19T10:22:46.867Z,8.80
2018-08-19T10:25:20.363Z,10.00
2018-08-19T10:30:29.245Z,10.20
2018-08-19T10:33:04.382Z,10.00
2018-08-19T10:35:34.032Z,10.00
2018-08-19T10:38:03.188Z,9.90
2018-08-19T10:40:31.827Z,9.50
2018-08-19T10:43:03.850Z,9.30
2018-08-19T10:45:33.180Z,9.10
2018-08-19T10:48:01.897Z,9.20
2018-08-19T10:50:30.550Z,9.50
2018-08-19T10:52:59.018Z,9.20
2018-08-19T10:55:27.647Z,9.30
2018-08-19T10:57:56.144Z,9.30
2018-08-19T11:00:31.371Z,9.40
2018-08-19T11:03:08.803Z,9.00
2018-08-19T11:05:40.024Z,8.70
2018-08-19T11:08:08.995Z,9.20
2018-08-19T11:10:37.415Z,9.10
2018-08-19T11:13:06.179Z,9.20
2018-08-19T11:15:40.335Z,9.00
2018-08-19T11:18:25.023Z,8.70
2018-08-19T11:20:57.454Z,8.80
2018-08-19T11:23:27.035Z,8.90
2018-08-19T11:25:56.022Z,9.10
2018-08-19T11:28:43.419Z,9.30
2018-08-19T11:31:20.130Z,9.10
2018-08-19T11:33:48.888Z,9.00
2018-08-19T11:36:17.411Z,8.60
2018-08-19T11:38:52.540Z,8.60
2018-08-19T11:41:21.204Z,8.80
2018-08-19T11:43:50.494Z,8.80
2018-08-19T11:46:18.902Z,8.60
2018-08-19T11:48:52.163Z,8.60
2018-08-19T11:51:20.496Z,8.10
2018-08-19T11:53:48.876Z,7.90
2018-08-19T11:56:17.318Z,8.30
2018-08-19T11:58:46.961Z,8.30
2018-08-19T12:01:19.890Z,8.20
2018-08-19T12:03:56.444Z,8.20
2018-08-19T12:06:27.098Z,8.20
2018-08-19T12:08:57.613Z,8.20
2018-08-19T12:11:29.615Z,7.80
2018-08-19T12:13:58.148Z,8.10
2018-08-19T12:16:27.464Z,8.00
2018-08-19T12:18:59.957Z,8.00
2018-08-19T12:21:29.974Z,8.00
2018-08-19T12:24:14.722Z,7.90
2018-08-19T12:26:43.535Z,7.80
2018-08-19T12:29:12.261Z,7.50
2018-08-19T12:31:40.567Z,7.70
2018-08-19T12:34:09.003Z,7.90
2018-08-19T12:36:37.405Z,8.20
2018-08-19T12:39:08.580Z,8.10
2018-08-19T12:41:44.190Z,8.20
2018-08-19T12:44:12.627Z,8.30
2018-08-19T12:46:46.026Z,8.30
2018-08-19T12:49:14.367Z,8.30
2018-08-19T12:51:42.748Z,7.70
2018-08-19T12:54:11.062Z,7.70
2018-08-19T12:56:39.382Z,7.60
2018-08-19T12:59:07.710Z,8.20
2018-08-19T13:01:36.162Z,7.90
2018-08-19T13:04:04.512Z,8.00
2018-08-19T13:06:32.932Z,8.30
2018-08-19T13:09:01.237Z,8.50
2018-08-19T13:11:29.729Z,8.20
2018-08-19T13:13:58.121Z,8.40
2018-08-19T13:16:26.563Z,8.90
2018-08-19T13:18:54.860Z,8.50
2018-08-19T13:21:25.558Z,9.10
2018-08-19T13:23:53.840Z,9.10
2018-08-19T13:26:22.376Z,9.50
2018-08-19T13:28:54.858Z,9.60
2018-08-19T13:31:28.373Z,9.50
2018-08-19T13:33:57.803Z,9.50
2018-08-19T13:36:26.368Z,9.40
2018-08-19T13:38:54.940Z,9.60
2018-08-19T13:41:23.287Z,9.30
2018-08-19T13:43:51.614Z,9.20
2018-08-19T13:46:19.987Z,9.80
2018-08-19T13:48:48.351Z,9.20
2018-08-19T13:51:16.706Z,8.90
2018-08-19T13:53:44.988Z,8.90
2018-08-19T13:56:13.328Z,9.20
2018-08-19T13:58:41.704Z,9.10
2018-08-19T14:01:10.192Z,9.30
2018-08-19T14:03:38.680Z,9.40
2018-08-19T14:06:07.673Z,9.40
2018-08-19T14:08:35.966Z,9.30
2018-08-19T14:11:04.488Z,8.90
2018-08-19T14:13:32.999Z,9.10
2018-08-19T14:16:01.587Z,9.00
2018-08-19T14:18:30.219Z,9.00
2018-08-19T14:20:58.589Z,9.60
2018-08-19T14:23:27.029Z,10.10
2018-08-19T14:25:55.449Z,9.80
2018-08-19T14:28:23.817Z,9.70
2018-08-19T14:30:52.745Z,10.20
2018-08-19T14:33:21.150Z,10.80
2018-08-19T14:35:49.610Z,11.50
2018-08-19T14:38:17.987Z,12.50
2018-08-19T14:40:46.643Z,12.90
2018-08-19T14:43:15.032Z,14.30
2018-08-19T14:45:43.326Z,15.70
2018-08-19T14:48:12.059Z,15.90
2018-08-19T14:50:42.599Z,16.80
2018-08-19T14:53:10.982Z,17.40
2018-08-19T14:55:39.439Z,17.70
2018-08-19T14:58:07.908Z,18.00
2018-08-19T15:00:36.299Z,18.30
2018-08-19T15:03:04.669Z,18.70
2018-08-19T15:05:33.040Z,19.60
2018-08-19T15:08:06.717Z,20.00
2018-08-19T15:10:35.138Z,20.60
2018-08-19T15:13:03.507Z,21.60
2018-08-19T15:15:32.015Z,21.00
2018-08-19T15:18:01.402Z,20.90
2018-08-19T15:20:34.160Z,21.00
2018-08-19T15:23:18.378Z,22.20
2018-08-19T15:25:46.994Z,22.00
2018-08-19T15:28:15.889Z,22.30
2018-08-19T15:30:44.225Z,22.40
2018-08-19T15:33:13.783Z,22.50
2018-08-19T15:35:42.741Z,23.00
2018-08-19T15:38:11.581Z,23.30
2018-08-19T15:40:48.100Z,22.90
2018-08-19T15:43:16.604Z,23.30
2018-08-19T15:45:45.386Z,23.40
2018-08-19T15:48:13.742Z,23.40
2018-08-19T15:50:42.092Z,23.50
2018-08-19T15:53:10.927Z,23.30
2018-08-19T15:55:39.723Z,23.60
2018-08-19T15:58:08.485Z,23.50
2018-08-19T16:00:39.198Z,23.40
2018-08-19T16:03:08.602Z,23.60
2018-08-19T16:05:36.968Z,23.60
2018-08-19T16:08:06.227Z,23.60
2018-08-19T16:10:34.970Z,23.40
2018-08-19T16:13:07.211Z,23.60
2018-08-19T16:15:35.579Z,23.60
2018-08-19T16:18:04.243Z,23.40
2018-08-19T16:20:32.650Z,23.30
2018-08-19T16:23:01.166Z,23.10
2018-08-19T16:25:29.907Z,23.30
2018-08-19T16:27:58.411Z,23.70
2018-08-19T16:30:27.402Z,23.10
2018-08-19T16:32:55.752Z,23.30
2018-08-19T16:35:24.072Z,23.30
2018-08-19T16:37:52.380Z,23.50
2018-08-19T16:40:20.950Z,23.40
2018-08-19T16:42:49.342Z,23.90
2018-08-19T16:45:17.691Z,24.00
2018-08-19T16:47:46.157Z,23.60
2018-08-19T16:50:14.653Z,24.10
2018-08-19T16:52:43.098Z,24.20
2018-08-19T16:55:11.486Z,24.50
2018-08-19T16:57:39.886Z,24.00
2018-08-19T17:00:09.594Z,24.70
2018-08-19T17:02:38.246Z,23.80
2018-08-19T17:05:26.170Z,24.20
2018-08-19T17:07:54.447Z,23.50
2018-08-19T17:10:23.067Z,24.70
2018-08-19T17:12:51.974Z,24.70
2018-08-19T17:15:20.383Z,24.70
2018-08-19T17:17:48.952Z,24.00
2018-08-19T17:20:17.400Z,24.80
2018-08-19T17:22:45.743Z,24.50
2018-08-19T17:25:14.069Z,24.90
2018-08-19T17:27:42.555Z,25.10
2018-08-19T17:30:16.258Z,24.60
2018-08-19T17:32:44.784Z,24.40
2018-08-19T17:35:13.522Z,25.00
2018-08-19T17:37:41.928Z,24.90
2018-08-19T17:40:10.421Z,24.60
2018-08-19T17:42:38.845Z,25.00
2018-08-19T17:45:07.383Z,24.90
2018-08-19T17:47:36.250Z,25.40
2018-08-19T17:50:05.161Z,24.80
2018-08-19T17:52:33.679Z,24.40
2018-08-19T17:55:02.270Z,24.70
2018-08-19T17:57:30.722Z,24.70
2018-08-19T17:59:59.227Z,23.80
2018-08-19T18:02:27.955Z,24.70
2018-08-19T18:04:56.540Z,24.40
2018-08-19T18:07:28.480Z,24.80
2018-08-19T18:09:59.576Z,24.60
2018-08-19T18:12:27.898Z,24.80
2018-08-19T18:14:56.965Z,24.90
2018-08-19T18:17:25.416Z,23.80
2018-08-19T18:19:53.727Z,24.80
2018-08-19T18:22:22.380Z,24.80
2018-08-19T18:25:01.019Z,24.40
2018-08-19T18:27:29.455Z,24.90
2018-08-19T18:29:57.925Z,25.10
2018-08-19T18:32:26.325Z,24.70
2018-08-19T18:34:54.687Z,25.10
2018-08-19T18:37:23.092Z,25.00
2018-08-19T18:39:51.460Z,24.90
2018-08-19T18:42:33.703Z,25.20
2018-08-19T18:45:06.330Z,25.20
2018-08-19T18:47:34.911Z,25.20
2018-08-19T18:50:07.800Z,25.30
2018-08-19T18:52:36.250Z,25.40
2018-08-19T18:55:05.119Z,25.60
2018-08-19T18:57:33.488Z,24.90
2018-08-19T19:00:01.969Z,24.80
2018-08-19T19:02:30.390Z,24.70
2018-08-19T19:04:58.958Z,25.10
2018-08-19T19:07:27.621Z,25.50
2018-08-19T19:09:55.963Z,25.00
2018-08-19T19:12:24.271Z,25.00
2018-08-19T19:14:52.736Z,25.40
2018-08-19T19:17:21.060Z,25.80
2018-08-19T19:19:50.236Z,25.90
2018-08-19T19:22:18.572Z,25.80
2018-08-19T19:24:46.971Z,25.80
2018-08-19T19:27:15.738Z,26.30
2018-08-19T19:29:49.598Z,26.40
2018-08-19T19:32:22.869Z,26.40
2018-08-19T19:34:51.294Z,26.60
2018-08-19T19:37:19.718Z,26.40
2018-08-19T19:39:54.904Z,26.40
2018-08-19T19:42:23.457Z,25.90
2018-08-19T19:44:52.864Z,26.10
2018-08-19T19:47:21.381Z,26.00
2018-08-19T19:49:54.293Z,26.30
2018-08-19T19:52:23.087Z,26.30
2018-08-19T19:54:51.414Z,26.50
2018-08-19T19:57:19.760Z,26.40
2018-08-19T19:59:48.103Z,26.80
2018-08-19T20:02:22.667Z,26.70
2018-08-19T20:04:51.269Z,27.10
2018-08-19T20:07:19.673Z,26.80
2018-08-19T20:09:48.119Z,26.70
2018-08-19T20:12:29.293Z,26.70
2018-08-19T20:15:00.470Z,26.70
2018-08-19T20:17:29.994Z,26.70
2018-08-19T20:19:59.291Z,26.90
2018-08-19T20:22:27.654Z,26.90
2018-08-19T20:24:56.300Z,26.80
2018-08-19T20:27:24.722Z,26.90
2018-08-19T20:29:54.494Z,27.00
2018-08-19T20:32:23.076Z,27.00
2018-08-19T20:34:51.660Z,27.00
2018-08-19T20:37:22.638Z,27.10
2018-08-19T20:39:51.240Z,27.10
2018-08-19T20:42:19.627Z,27.20
2018-08-19T20:44:48.006Z,27.30
2018-08-19T20:47:16.612Z,27.30
2018-08-19T20:49:47.332Z,27.40
2018-08-19T20:52:16.020Z,27.40
2018-08-19T20:54:44.344Z,27.50
2018-08-19T20:57:12.667Z,27.50
2018-08-19T20:59:40.979Z,27.60
2018-08-19T21:02:09.606Z,27.60
2018-08-19T21:04:37.951Z,27.70
2018-08-19T21:07:06.586Z,27.80
2018-08-19T21:09:36.019Z,27.80
2018-08-19T21:12:04.452Z,27.80
2018-08-19T21:14:32.859Z,28.00
2018-08-19T21:17:03.147Z,28.00
2018-08-19T21:19:31.493Z,28.00
2018-08-19T21:21:59.883Z,28.10
2018-08-19T21:24:28.219Z,28.10
2018-08-19T21:26:59.997Z,28.20
2018-08-19T21:29:28.794Z,28.30
2018-08-19T21:31:57.160Z,28.30
2018-08-19T21:34:25.554Z,28.40
2018-08-19T21:36:53.883Z,28.50
2018-08-19T21:39:22.288Z,29.00
2018-08-19T21:41:51.866Z,28.70
2018-08-19T21:44:20.594Z,28.90
2018-08-19T21:46:49.458Z,29.20
2018-08-19T21:49:17.870Z,29.50
2018-08-19T21:51:46.326Z,29.80
2018-08-19T21:54:15.837Z,30.00
2018-08-19T21:56:44.174Z,30.40
2018-08-19T21:59:17.790Z,31.30
2018-08-19T22:01:56.653Z,31.00
2018-08-19T22:04:25.247Z,31.30
2018-08-19T22:06:53.642Z,31.70
2018-08-19T22:09:35.895Z,31.80
2018-08-19T22:12:05.036Z,31.90
2018-08-19T22:14:33.618Z,31.90
2018-08-19T22:17:08.104Z,32.20
2018-08-19T22:19:36.575Z,32.10
2018-08-19T22:22:05.106Z,32.30
2018-08-19T22:24:33.618Z,32.50
2018-08-19T22:27:07.337Z,32.50
2018-08-19T22:29:35.703Z,32.60
2018-08-19T22:32:04.138Z,32.40
2018-08-19T22:34:32.565Z,33.50
2018-08-19T22:37:01.072Z,33.20
2018-08-19T22:39:29.439Z,33.10
2018-08-19T22:41:57.871Z,33.20
2018-08-19T22:44:26.161Z,33.20
2018-08-19T22:46:54.547Z,33.30
2018-08-19T22:49:23.799Z,33.40
2018-08-19T22:51:52.135Z,33.40
2018-08-19T22:54:20.490Z,33.50
2018-08-19T22:56:48.853Z,33.40
2018-08-19T22:59:17.482Z,33.60
2018-08-19T23:01:48.183Z,33.70
2018-08-19T23:04:16.564Z,33.70
2018-08-19T23:06:45.631Z,33.90
2018-08-19T23:09:13.926Z,33.90
2018-08-19T23:11:47.053Z,34.10
2018-08-19T23:14:26.794Z,34.20
2018-08-19T23:16:55.289Z,34.20
2018-08-19T23:19:23.774Z,34.30
2018-08-19T23:21:52.124Z,34.50
2018-08-19T23:24:20.431Z,34.40
2018-08-19T23:26:48.882Z,34.50
2018-08-19T23:29:17.354Z,34.50
2018-08-19T23:31:45.871Z,34.50
2018-08-19T23:34:14.243Z,34.50
2018-08-19T23:36:42.685Z,34.60
2018-08-19T23:39:11.147Z,34.70
2018-08-19T23:41:39.474Z,34.70
2018-08-19T23:44:08.043Z,34.80
2018-08-19T23:46:36.555Z,34.80
2018-08-19T23:49:04.960Z,34.90
2018-08-19T23:51:33.333Z,35.10
2018-08-19T23:54:02.591Z,35.20
2018-08-19T23:56:31.434Z,35.20
2018-08-19T23:59:00.371Z,35.30
